sensor_id;sensor_type;location;lat;lon;timestamp;pressure;altitude;pressure_sealevel;temperature;humidity
60089;BME280;45961;53.574;55.878;2022-08-19T00:00:47;101127.13;;;11.98;54.75
60089;BME280;45961;53.574;55.878;2022-08-19T00:01:52;101135.66;;;11.91;54.73
60089;BME280;45961;53.574;55.878;2022-08-19T00:02:54;101130.41;;;11.88;54.81
60089;BME280;45961;53.574;55.878;2022-08-19T00:03:58;101127.66;;;11.81;55.04
60089;BME280;45961;53.574;55.878;2022-08-19T00:05:00;101131.94;;;11.78;54.95
60089;BME280;45961;53.574;55.878;2022-08-19T00:06:01;101132.75;;;11.75;54.94
60089;BME280;45961;53.574;55.878;2022-08-19T00:07:04;101133.91;;;11.90;54.71
60089;BME280;45961;53.574;55.878;2022-08-19T00:08:05;101140.78;;;11.88;54.76
60089;BME280;45961;53.574;55.878;2022-08-19T00:09:10;101136.47;;;11.88;54.71
60089;BME280;45961;53.574;55.878;2022-08-19T00:10:13;101133.06;;;11.91;54.57
60089;BME280;45961;53.574;55.878;2022-08-19T00:11:15;101141.59;;;11.83;54.69
60089;BME280;45961;53.574;55.878;2022-08-19T00:12:16;101138.19;;;11.86;54.69
60089;BME280;45961;53.574;55.878;2022-08-19T00:13:17;101140.72;;;11.84;54.53
60089;BME280;45961;53.574;55.878;2022-08-19T00:14:19;101145.03;;;11.84;54.44
60089;BME280;45961;53.574;55.878;2022-08-19T00:15:21;101139.00;;;11.83;54.58
60089;BME280;45961;53.574;55.878;2022-08-19T00:16:24;101146.84;;;11.87;54.42
60089;BME280;45961;53.574;55.878;2022-08-19T00:17:25;101152.84;;;11.85;54.48
60089;BME280;45961;53.574;55.878;2022-08-19T00:18:26;101147.66;;;11.85;54.37
60089;BME280;45961;53.574;55.878;2022-08-19T00:19:27;101149.25;;;11.80;54.52
60089;BME280;45961;53.574;55.878;2022-08-19T00:20:28;101150.25;;;11.85;54.46
60089;BME280;45961;53.574;55.878;2022-08-19T00:21:30;101148.59;;;11.89;54.18
60089;BME280;45961;53.574;55.878;2022-08-19T00:22:32;101150.41;;;11.93;54.14
60089;BME280;45961;53.574;55.878;2022-08-19T00:23:34;101153.84;;;11.94;54.37
60089;BME280;45961;53.574;55.878;2022-08-19T00:24:36;101149.53;;;11.93;54.32
60089;BME280;45961;53.574;55.878;2022-08-19T00:25:39;101154.84;;;11.99;54.03
60089;BME280;45961;53.574;55.878;2022-08-19T00:26:42;101161.84;;;12.03;54.96
60089;BME280;45961;53.574;55.878;2022-08-19T00:27:43;101160.06;;;12.02;55.93
60089;BME280;45961;53.574;55.878;2022-08-19T00:28:44;101160.03;;;11.99;55.64
60089;BME280;45961;53.574;55.878;2022-08-19T00:29:46;101161.66;;;11.94;56.95
60089;BME280;45961;53.574;55.878;2022-08-19T00:30:47;101161.78;;;12.01;55.43
60089;BME280;45961;53.574;55.878;2022-08-19T00:31:49;101166.16;;;12.02;55.50
60089;BME280;45961;53.574;55.878;2022-08-19T00:32:53;101163.50;;;11.99;55.29
60089;BME280;45961;53.574;55.878;2022-08-19T00:33:55;101172.16;;;12.00;55.00
60089;BME280;45961;53.574;55.878;2022-08-19T00:34:56;101176.41;;;11.98;55.10
60089;BME280;45961;53.574;55.878;2022-08-19T00:35:59;101188.53;;;11.97;54.77
60089;BME280;45961;53.574;55.878;2022-08-19T00:37:00;101181.53;;;11.93;55.02
60089;BME280;45961;53.574;55.878;2022-08-19T00:38:01;101174.59;;;11.92;55.28
60089;BME280;45961;53.574;55.878;2022-08-19T00:39:02;101186.78;;;11.95;55.70
60089;BME280;45961;53.574;55.878;2022-08-19T00:40:05;101188.56;;;11.99;55.93
60089;BME280;45961;53.574;55.878;2022-08-19T00:41:07;101185.91;;;11.96;55.43
60089;BME280;45961;53.574;55.878;2022-08-19T00:42:08;101184.03;;;11.89;55.83
60089;BME280;45961;53.574;55.878;2022-08-19T00:43:10;101182.41;;;11.94;55.20
60089;BME280;45961;53.574;55.878;2022-08-19T00:44:16;101185.91;;;11.94;55.45
60089;BME280;45961;53.574;55.878;2022-08-19T00:45:20;101194.56;;;11.95;55.52
60089;BME280;45961;53.574;55.878;2022-08-19T00:46:21;101190.09;;;11.89;55.23
60089;BME280;45961;53.574;55.878;2022-08-19T00:47:22;101194.41;;;11.89;55.24
60089;BME280;45961;53.574;55.878;2022-08-19T00:48:23;101190.97;;;11.90;55.74
60089;BME280;45961;53.574;55.878;2022-08-19T00:49:47;101190.09;;;11.88;55.32
60089;BME280;45961;53.574;55.878;2022-08-19T00:50:53;101184.91;;;11.88;55.14
60089;BME280;45961;53.574;55.878;2022-08-19T00:52:32;101184.91;;;11.88;55.57
60089;BME280;45961;53.574;55.878;2022-08-19T00:53:34;101193.47;;;11.83;55.70
60089;BME280;45961;53.574;55.878;2022-08-19T00:54:37;101203.84;;;11.83;55.55
60089;BME280;45961;53.574;55.878;2022-08-19T00:55:39;101201.06;;;11.76;55.59
60089;BME280;45961;53.574;55.878;2022-08-19T00:56:41;101199.28;;;11.73;55.83
60089;BME280;45961;53.574;55.878;2022-08-19T00:57:46;101197.50;;;11.71;56.03
60089;BME280;45961;53.574;55.878;2022-08-19T00:58:48;101200.13;;;11.72;56.17
60089;BME280;45961;53.574;55.878;2022-08-19T00:59:54;101203.47;;;11.67;56.24
60089;BME280;45961;53.574;55.878;2022-08-19T01:00:56;101205.22;;;11.68;56.20
60089;BME280;45961;53.574;55.878;2022-08-19T01:01:57;101207.00;;;11.70;56.26
60089;BME280;45961;53.574;55.878;2022-08-19T01:02:58;101207.03;;;11.72;56.17
60089;BME280;45961;53.574;55.878;2022-08-19T01:03:59;101205.28;;;11.71;56.15
60089;BME280;45961;53.574;55.878;2022-08-19T01:05:03;101209.63;;;11.73;56.20
60089;BME280;45961;53.574;55.878;2022-08-19T01:06:06;101203.50;;;11.70;56.23
60089;BME280;45961;53.574;55.878;2022-08-19T01:07:07;101210.38;;;11.66;56.61
60089;BME280;45961;53.574;55.878;2022-08-19T01:08:08;101207.66;;;11.60;56.86
60089;BME280;45961;53.574;55.878;2022-08-19T01:09:10;101198.84;;;11.52;57.00
60089;BME280;45961;53.574;55.878;2022-08-19T01:10:12;101217.78;;;11.48;57.45
60089;BME280;45961;53.574;55.878;2022-08-19T01:11:14;101207.22;;;11.40;57.74
60089;BME280;45961;53.574;55.878;2022-08-19T01:12:15;101208.09;;;11.41;57.94
60089;BME280;45961;53.574;55.878;2022-08-19T01:13:19;101209.91;;;11.43;57.77
60089;BME280;45961;53.574;55.878;2022-08-19T01:14:22;101227.19;;;11.43;57.86
60089;BME280;45961;53.574;55.878;2022-08-19T01:15:32;101218.53;;;11.44;57.86
60089;BME280;45961;53.574;55.878;2022-08-19T01:16:35;101207.94;;;11.33;57.94
60089;BME280;45961;53.574;55.878;2022-08-19T01:17:38;101214.28;;;11.46;57.79
60089;BME280;45961;53.574;55.878;2022-08-19T01:18:42;101223.91;;;11.53;58.17
60089;BME280;45961;53.574;55.878;2022-08-19T01:19:45;101208.25;;;11.47;58.20
60089;BME280;45961;53.574;55.878;2022-08-19T01:20:47;101227.34;;;11.52;59.60
60089;BME280;45961;53.574;55.878;2022-08-19T01:21:57;101234.25;;;11.50;60.02
60089;BME280;45961;53.574;55.878;2022-08-19T01:23:02;101231.59;;;11.47;59.94
60089;BME280;45961;53.574;55.878;2022-08-19T01:24:03;101232.47;;;11.49;60.18
60089;BME280;45961;53.574;55.878;2022-08-19T01:25:05;101240.22;;;11.46;59.92
60089;BME280;45961;53.574;55.878;2022-08-19T01:26:06;101241.97;;;11.48;59.93
60089;BME280;45961;53.574;55.878;2022-08-19T01:27:07;101261.94;;;11.52;59.65
60089;BME280;45961;53.574;55.878;2022-08-19T01:28:24;101239.63;;;11.59;59.37
60089;BME280;45961;53.574;55.878;2022-08-19T01:29:26;101249.06;;;11.55;60.11
60089;BME280;45961;53.574;55.878;2022-08-19T01:30:30;101249.91;;;11.56;59.95
60089;BME280;45961;53.574;55.878;2022-08-19T01:31:31;101255.03;;;11.53;59.74
60089;BME280;45961;53.574;55.878;2022-08-19T01:32:33;101251.63;;;11.54;60.64
60089;BME280;45961;53.574;55.878;2022-08-19T01:33:34;101248.03;;;11.49;61.46
60089;BME280;45961;53.574;55.878;2022-08-19T01:34:35;101253.16;;;11.46;62.15
60089;BME280;45961;53.574;55.878;2022-08-19T01:35:36;101250.25;;;11.32;61.60
60089;BME280;45961;53.574;55.878;2022-08-19T01:36:40;101256.31;;;11.32;61.76
60089;BME280;45961;53.574;55.878;2022-08-19T01:37:52;101256.22;;;11.28;61.72
60089;BME280;45961;53.574;55.878;2022-08-19T01:38:54;101267.44;;;11.28;61.74
60089;BME280;45961;53.574;55.878;2022-08-19T01:39:55;101266.41;;;11.20;61.98
60089;BME280;45961;53.574;55.878;2022-08-19T01:40:56;101272.50;;;11.22;61.75
60089;BME280;45961;53.574;55.878;2022-08-19T01:41:57;101270.72;;;11.21;61.88
60089;BME280;45961;53.574;55.878;2022-08-19T01:42:58;101265.56;;;11.21;61.81
60089;BME280;45961;53.574;55.878;2022-08-19T01:44:00;101274.16;;;11.20;62.11
60089;BME280;45961;53.574;55.878;2022-08-19T01:45:05;101279.34;;;11.20;62.44
60089;BME280;45961;53.574;55.878;2022-08-19T01:46:06;101282.03;;;11.23;62.05
60089;BME280;45961;53.574;55.878;2022-08-19T01:47:07;101277.63;;;11.19;62.07
60089;BME280;45961;53.574;55.878;2022-08-19T01:48:10;101269.56;;;11.08;61.99
60089;BME280;45961;53.574;55.878;2022-08-19T01:49:11;101277.63;;;11.19;62.45
60089;BME280;45961;53.574;55.878;2022-08-19T01:50:13;101282.06;;;11.25;62.75
60089;BME280;45961;53.574;55.878;2022-08-19T01:51:13;101282.91;;;11.24;63.04
60089;BME280;45961;53.574;55.878;2022-08-19T01:52:14;101288.16;;;11.27;62.92
60089;BME280;45961;53.574;55.878;2022-08-19T01:53:16;101284.38;;;11.50;62.92
60089;BME280;45961;53.574;55.878;2022-08-19T01:54:18;101284.00;;;12.14;63.17
60089;BME280;45961;53.574;55.878;2022-08-19T01:55:21;101278.38;;;12.86;61.14
60089;BME280;45961;53.574;55.878;2022-08-19T01:56:24;101289.81;;;13.49;59.85
60089;BME280;45961;53.574;55.878;2022-08-19T01:57:26;101281.78;;;13.99;57.64
60089;BME280;45961;53.574;55.878;2022-08-19T01:58:32;101275.47;;;14.53;56.05
60089;BME280;45961;53.574;55.878;2022-08-19T01:59:36;101276.81;;;15.10;55.81
60089;BME280;45961;53.574;55.878;2022-08-19T02:00:38;101284.03;;;15.49;53.74
60089;BME280;45961;53.574;55.878;2022-08-19T02:01:40;101279.06;;;15.94;52.46
60089;BME280;45961;53.574;55.878;2022-08-19T02:02:41;101279.22;;;16.41;51.56
60089;BME280;45961;53.574;55.878;2022-08-19T02:03:43;101281.91;;;16.78;49.63
60089;BME280;45961;53.574;55.878;2022-08-19T02:04:43;101289.69;;;17.44;50.40
60089;BME280;45961;53.574;55.878;2022-08-19T02:05:46;101280.91;;;17.82;48.56
60089;BME280;45961;53.574;55.878;2022-08-19T02:06:47;101275.53;;;18.08;47.83
60089;BME280;45961;53.574;55.878;2022-08-19T02:07:48;101284.03;;;18.51;47.32
60089;BME280;45961;53.574;55.878;2022-08-19T02:08:49;101286.50;;;18.77;46.67
60089;BME280;45961;53.574;55.878;2022-08-19T02:09:50;101289.75;;;19.10;46.75
60089;BME280;45961;53.574;55.878;2022-08-19T02:10:52;101287.63;;;19.45;46.44
60089;BME280;45961;53.574;55.878;2022-08-19T02:11:52;101284.50;;;19.93;45.28
60089;BME280;45961;53.574;55.878;2022-08-19T02:12:54;101281.28;;;20.36;43.69
60089;BME280;45961;53.574;55.878;2022-08-19T02:13:55;101284.22;;;20.76;42.65
60089;BME280;45961;53.574;55.878;2022-08-19T02:14:56;101282.53;;;21.25;41.75
60089;BME280;45961;53.574;55.878;2022-08-19T02:15:57;101282.56;;;21.71;41.18
60089;BME280;45961;53.574;55.878;2022-08-19T02:16:58;101287.72;;;21.76;40.91
60089;BME280;45961;53.574;55.878;2022-08-19T02:17:59;101289.91;;;21.97;40.60
60089;BME280;45961;53.574;55.878;2022-08-19T02:19:00;101289.59;;;22.14;38.82
60089;BME280;45961;53.574;55.878;2022-08-19T02:20:01;101292.75;;;21.88;41.31
60089;BME280;45961;53.574;55.878;2022-08-19T02:21:02;101292.22;;;22.12;40.10
60089;BME280;45961;53.574;55.878;2022-08-19T02:22:03;101294.47;;;21.89;41.45
60089;BME280;45961;53.574;55.878;2022-08-19T02:23:04;101293.81;;;21.78;40.35
60089;BME280;45961;53.574;55.878;2022-08-19T02:24:06;101299.34;;;21.65;40.56
60089;BME280;45961;53.574;55.878;2022-08-19T02:25:08;101304.75;;;21.59;40.42
60089;BME280;45961;53.574;55.878;2022-08-19T02:26:09;101306.81;;;21.42;41.21
60089;BME280;45961;53.574;55.878;2022-08-19T02:27:10;101307.22;;;21.17;40.96
60089;BME280;45961;53.574;55.878;2022-08-19T02:28:11;101304.94;;;20.39;37.94
60089;BME280;45961;53.574;55.878;2022-08-19T02:29:12;101304.78;;;21.05;39.33
60089;BME280;45961;53.574;55.878;2022-08-19T02:30:18;101305.53;;;21.13;38.99
60089;BME280;45961;53.574;55.878;2022-08-19T02:31:21;101308.94;;;21.18;38.07
60089;BME280;45961;53.574;55.878;2022-08-19T02:32:22;101302.63;;;21.29;38.53
60089;BME280;45961;53.574;55.878;2022-08-19T02:33:23;101314.69;;;20.91;37.52
60089;BME280;45961;53.574;55.878;2022-08-19T02:34:24;101317.47;;;20.18;38.40
60089;BME280;45961;53.574;55.878;2022-08-19T02:35:25;101310.75;;;20.61;38.41
60089;BME280;45961;53.574;55.878;2022-08-19T02:36:27;101311.59;;;19.96;39.07
60089;BME280;45961;53.574;55.878;2022-08-19T02:37:28;101316.34;;;20.36;38.50
60089;BME280;45961;53.574;55.878;2022-08-19T02:38:48;101313.16;;;20.14;38.26
60089;BME280;45961;53.574;55.878;2022-08-19T02:39:48;101316.59;;;20.18;38.29
60089;BME280;45961;53.574;55.878;2022-08-19T02:40:53;101290.53;;;20.01;38.94
60089;BME280;45961;53.574;55.878;2022-08-19T02:41:54;101324.47;;;20.19;38.77
60089;BME280;45961;53.574;55.878;2022-08-19T02:42:55;101319.41;;;20.04;38.93
60089;BME280;45961;53.574;55.878;2022-08-19T02:43:58;101313.56;;;19.82;38.37
60089;BME280;45961;53.574;55.878;2022-08-19T02:45:00;101309.00;;;19.95;38.31
60089;BME280;45961;53.574;55.878;2022-08-19T02:46:01;101312.47;;;19.97;38.32
60089;BME280;45961;53.574;55.878;2022-08-19T02:47:02;101319.97;;;19.49;38.74
60089;BME280;45961;53.574;55.878;2022-08-19T02:48:04;101319.53;;;19.95;38.55
60089;BME280;45961;53.574;55.878;2022-08-19T02:49:06;101321.91;;;20.15;38.48
60089;BME280;45961;53.574;55.878;2022-08-19T02:50:08;101323.22;;;19.79;37.29
60089;BME280;45961;53.574;55.878;2022-08-19T02:51:16;101319.56;;;19.92;37.28
60089;BME280;45961;53.574;55.878;2022-08-19T02:52:17;101317.84;;;19.88;37.37
60089;BME280;45961;53.574;55.878;2022-08-19T02:53:18;101322.94;;;20.00;37.70
60089;BME280;45961;53.574;55.878;2022-08-19T02:54:19;101322.25;;;19.87;37.21
60089;BME280;45961;53.574;55.878;2022-08-19T02:55:20;101333.44;;;20.03;37.65
60089;BME280;45961;53.574;55.878;2022-08-19T02:56:21;101323.84;;;19.97;36.97
60089;BME280;45961;53.574;55.878;2022-08-19T02:57:23;101338.53;;;20.15;37.18
60089;BME280;45961;53.574;55.878;2022-08-19T02:58:24;101330.75;;;20.08;36.92
60089;BME280;45961;53.574;55.878;2022-08-19T02:59:30;101334.13;;;20.17;36.84
60089;BME280;45961;53.574;55.878;2022-08-19T03:00:31;101335.19;;;20.01;37.61
60089;BME280;45961;53.574;55.878;2022-08-19T03:01:33;101335.31;;;18.96;37.60
60089;BME280;45961;53.574;55.878;2022-08-19T03:02:34;101333.69;;;18.80;38.54
60089;BME280;45961;53.574;55.878;2022-08-19T03:03:35;101340.41;;;19.18;38.29
60089;BME280;45961;53.574;55.878;2022-08-19T03:04:35;101336.72;;;19.39;38.27
60089;BME280;45961;53.574;55.878;2022-08-19T03:05:37;101333.88;;;19.66;38.40
60089;BME280;45961;53.574;55.878;2022-08-19T03:06:40;101336.78;;;19.31;38.28
60089;BME280;45961;53.574;55.878;2022-08-19T03:07:41;101338.38;;;19.51;38.03
60089;BME280;45961;53.574;55.878;2022-08-19T03:08:44;101333.00;;;19.66;37.71
60089;BME280;45961;53.574;55.878;2022-08-19T03:09:46;101337.19;;;19.81;37.84
60089;BME280;45961;53.574;55.878;2022-08-19T03:10:47;101331.72;;;19.08;38.25
60089;BME280;45961;53.574;55.878;2022-08-19T03:11:48;101341.34;;;19.11;38.26
60089;BME280;45961;53.574;55.878;2022-08-19T03:12:49;101342.41;;;18.84;38.36
60089;BME280;45961;53.574;55.878;2022-08-19T03:13:50;101336.00;;;19.23;37.87
60089;BME280;45961;53.574;55.878;2022-08-19T03:14:51;101342.78;;;19.47;37.37
60089;BME280;45961;53.574;55.878;2022-08-19T03:15:53;101344.50;;;19.48;37.33
60089;BME280;45961;53.574;55.878;2022-08-19T03:16:54;101334.81;;;19.55;37.29
60089;BME280;45961;53.574;55.878;2022-08-19T03:17:55;101343.53;;;19.58;37.00
60089;BME280;45961;53.574;55.878;2022-08-19T03:18:57;101346.34;;;19.37;37.38
60089;BME280;45961;53.574;55.878;2022-08-19T03:20:03;101341.84;;;19.53;37.60
60089;BME280;45961;53.574;55.878;2022-08-19T03:21:05;101338.09;;;19.80;37.20
60089;BME280;45961;53.574;55.878;2022-08-19T03:22:06;101345.06;;;19.81;37.09
60089;BME280;45961;53.574;55.878;2022-08-19T03:23:08;101343.94;;;20.03;36.97
60089;BME280;45961;53.574;55.878;2022-08-19T03:24:09;101347.44;;;20.04;36.68
60089;BME280;45961;53.574;55.878;2022-08-19T03:25:11;101347.59;;;19.90;36.86
60089;BME280;45961;53.574;55.878;2022-08-19T03:26:13;101352.88;;;18.91;37.90
60089;BME280;45961;53.574;55.878;2022-08-19T03:27:15;101351.66;;;19.32;37.99
60089;BME280;45961;53.574;55.878;2022-08-19T03:28:17;101354.66;;;18.86;38.48
60089;BME280;45961;53.574;55.878;2022-08-19T03:29:18;101360.44;;;19.30;37.81
60089;BME280;45961;53.574;55.878;2022-08-19T03:30:20;101352.59;;;19.27;38.23
60089;BME280;45961;53.574;55.878;2022-08-19T03:31:22;101355.50;;;18.88;38.39
60089;BME280;45961;53.574;55.878;2022-08-19T03:32:23;101364.88;;;19.23;38.81
60089;BME280;45961;53.574;55.878;2022-08-19T03:33:25;101364.09;;;19.12;38.58
60089;BME280;45961;53.574;55.878;2022-08-19T03:34:30;101358.59;;;19.42;38.14
60089;BME280;45961;53.574;55.878;2022-08-19T03:35:31;101365.59;;;19.40;37.29
60089;BME280;45961;53.574;55.878;2022-08-19T03:36:33;101362.84;;;19.54;37.95
60089;BME280;45961;53.574;55.878;2022-08-19T03:37:33;101369.03;;;19.47;37.44
60089;BME280;45961;53.574;55.878;2022-08-19T03:38:44;101366.38;;;19.48;37.57
60089;BME280;45961;53.574;55.878;2022-08-19T03:39:46;101362.88;;;19.48;37.78
60089;BME280;45961;53.574;55.878;2022-08-19T03:40:47;101368.31;;;19.31;37.53
60089;BME280;45961;53.574;55.878;2022-08-19T03:41:49;101376.16;;;19.33;38.21
60089;BME280;45961;53.574;55.878;2022-08-19T03:42:50;101369.19;;;19.29;37.86
60089;BME280;45961;53.574;55.878;2022-08-19T03:43:53;101369.13;;;19.33;37.99
60089;BME280;45961;53.574;55.878;2022-08-19T03:44:54;101370.53;;;18.56;38.88
60089;BME280;45961;53.574;55.878;2022-08-19T03:46:10;101375.59;;;18.94;38.80
60089;BME280;45961;53.574;55.878;2022-08-19T03:47:12;101378.09;;;19.08;37.69
60089;BME280;45961;53.574;55.878;2022-08-19T03:48:16;101379.91;;;19.01;37.54
60089;BME280;45961;53.574;55.878;2022-08-19T03:49:19;101372.56;;;19.43;37.77
60089;BME280;45961;53.574;55.878;2022-08-19T03:50:20;101373.69;;;19.14;37.35
60089;BME280;45961;53.574;55.878;2022-08-19T03:51:32;101371.09;;;19.11;37.03
60089;BME280;45961;53.574;55.878;2022-08-19T03:52:35;101366.84;;;18.92;37.06
60089;BME280;45961;53.574;55.878;2022-08-19T03:53:36;101360.84;;;18.76;37.60
60089;BME280;45961;53.574;55.878;2022-08-19T03:54:37;101372.88;;;19.06;38.06
60089;BME280;45961;53.574;55.878;2022-08-19T03:55:40;101370.38;;;18.88;37.07
60089;BME280;45961;53.574;55.878;2022-08-19T03:56:44;101369.53;;;18.86;36.83
60089;BME280;45961;53.574;55.878;2022-08-19T03:57:45;101372.94;;;18.95;36.31
60089;BME280;45961;53.574;55.878;2022-08-19T03:58:48;101365.97;;;18.91;36.65
60089;BME280;45961;53.574;55.878;2022-08-19T03:59:49;101374.88;;;18.70;36.71
60089;BME280;45961;53.574;55.878;2022-08-19T04:00:50;101384.44;;;18.76;36.86
60089;BME280;45961;53.574;55.878;2022-08-19T04:01:56;101372.91;;;19.00;36.82
60089;BME280;45961;53.574;55.878;2022-08-19T04:02:57;101381.78;;;18.84;36.45
60089;BME280;45961;53.574;55.878;2022-08-19T04:03:59;101383.56;;;18.76;37.08
60089;BME280;45961;53.574;55.878;2022-08-19T04:05:00;101389.69;;;18.76;37.26
60089;BME280;45961;53.574;55.878;2022-08-19T04:07:13;101388.84;;;18.69;36.85
60089;BME280;45961;53.574;55.878;2022-08-19T04:08:16;101384.50;;;18.62;36.95
60089;BME280;45961;53.574;55.878;2022-08-19T04:09:20;101391.47;;;18.74;36.65
60089;BME280;45961;53.574;55.878;2022-08-19T04:10:22;101390.59;;;18.64;37.15
60089;BME280;45961;53.574;55.878;2022-08-19T04:11:29;101374.00;;;18.65;38.02
60089;BME280;45961;53.574;55.878;2022-08-19T04:12:31;101383.75;;;18.33;38.17
60089;BME280;45961;53.574;55.878;2022-08-19T04:13:33;101387.97;;;18.64;38.05
60089;BME280;45961;53.574;55.878;2022-08-19T04:14:35;101388.06;;;18.47;38.39
60089;BME280;45961;53.574;55.878;2022-08-19T04:15:40;101388.75;;;18.85;38.12
60089;BME280;45961;53.574;55.878;2022-08-19T04:16:42;101389.66;;;18.84;37.55
60089;BME280;45961;53.574;55.878;2022-08-19T04:17:46;101397.59;;;18.71;36.84
60089;BME280;45961;53.574;55.878;2022-08-19T04:18:48;101393.22;;;18.61;37.12
60089;BME280;45961;53.574;55.878;2022-08-19T04:19:49;101394.97;;;18.67;37.04
60089;BME280;45961;53.574;55.878;2022-08-19T04:20:51;101401.09;;;18.64;36.98
60089;BME280;45961;53.574;55.878;2022-08-19T04:21:54;101399.31;;;18.72;37.11
60089;BME280;45961;53.574;55.878;2022-08-19T04:22:56;101403.81;;;18.46;37.36
60089;BME280;45961;53.574;55.878;2022-08-19T04:23:57;101396.81;;;18.45;37.64
60089;BME280;45961;53.574;55.878;2022-08-19T04:24:58;101402.84;;;18.65;37.79
60089;BME280;45961;53.574;55.878;2022-08-19T04:25:59;101403.81;;;18.40;37.74
60089;BME280;45961;53.574;55.878;2022-08-19T04:27:01;101403.78;;;18.49;37.52
60089;BME280;45961;53.574;55.878;2022-08-19T04:28:02;101397.63;;;18.62;37.27
60089;BME280;45961;53.574;55.878;2022-08-19T04:29:06;101408.09;;;18.62;37.58
60089;BME280;45961;53.574;55.878;2022-08-19T04:30:08;101401.94;;;18.76;37.14
60089;BME280;45961;53.574;55.878;2022-08-19T04:31:15;101403.78;;;18.44;36.83
60089;BME280;45961;53.574;55.878;2022-08-19T04:32:17;101404.72;;;18.42;36.90
60089;BME280;45961;53.574;55.878;2022-08-19T04:33:21;101408.09;;;18.65;36.84
60089;BME280;45961;53.574;55.878;2022-08-19T04:34:26;101404.53;;;18.80;37.05
60089;BME280;45961;53.574;55.878;2022-08-19T04:35:36;101401.31;;;18.05;37.32
60089;BME280;45961;53.574;55.878;2022-08-19T04:36:40;101411.63;;;18.49;37.18
60089;BME280;45961;53.574;55.878;2022-08-19T04:37:41;101406.41;;;18.50;37.01
60089;BME280;45961;53.574;55.878;2022-08-19T04:38:43;101400.22;;;18.61;37.11
60089;BME280;45961;53.574;55.878;2022-08-19T04:39:43;101404.56;;;18.69;36.84
60089;BME280;45961;53.574;55.878;2022-08-19T04:41:03;101401.97;;;18.63;36.45
60089;BME280;45961;53.574;55.878;2022-08-19T04:42:23;101394.81;;;18.96;36.44
60089;BME280;45961;53.574;55.878;2022-08-19T04:43:39;101408.84;;;18.90;36.65
60089;BME280;45961;53.574;55.878;2022-08-19T04:44:40;101408.78;;;19.03;36.69
60089;BME280;45961;53.574;55.878;2022-08-19T04:45:44;101413.25;;;18.87;36.16
60089;BME280;45961;53.574;55.878;2022-08-19T04:46:46;101409.66;;;18.97;36.62
60089;BME280;45961;53.574;55.878;2022-08-19T04:47:48;101421.06;;;18.96;36.61
60089;BME280;45961;53.574;55.878;2022-08-19T04:48:49;101406.16;;;19.03;36.17
60089;BME280;45961;53.574;55.878;2022-08-19T04:49:50;101414.06;;;18.92;36.23
60089;BME280;45961;53.574;55.878;2022-08-19T04:50:53;101412.28;;;19.02;36.42
60089;BME280;45961;53.574;55.878;2022-08-19T04:51:58;101413.25;;;18.87;36.32
60089;BME280;45961;53.574;55.878;2022-08-19T04:52:59;101416.53;;;19.13;36.44
60089;BME280;45961;53.574;55.878;2022-08-19T04:54:01;101421.84;;;19.10;35.79
60089;BME280;45961;53.574;55.878;2022-08-19T04:55:03;101421.75;;;19.19;35.91
60089;BME280;45961;53.574;55.878;2022-08-19T04:56:12;101412.97;;;19.27;36.03
60089;BME280;45961;53.574;55.878;2022-08-19T04:57:13;101423.66;;;18.99;36.34
60089;BME280;45961;53.574;55.878;2022-08-19T04:58:14;101415.06;;;18.68;36.42
60089;BME280;45961;53.574;55.878;2022-08-19T04:59:17;101416.81;;;18.61;36.26
60089;BME280;45961;53.574;55.878;2022-08-19T05:00:20;101414.19;;;18.75;36.62
60089;BME280;45961;53.574;55.878;2022-08-19T05:01:27;101411.66;;;18.50;36.83
60089;BME280;45961;53.574;55.878;2022-08-19T05:02:28;101413.34;;;18.59;36.89
60089;BME280;45961;53.574;55.878;2022-08-19T05:03:30;101418.53;;;18.82;36.59
60089;BME280;45961;53.574;55.878;2022-08-19T05:04:34;101395.91;;;18.55;37.28
60089;BME280;45961;53.574;55.878;2022-08-19T05:05:41;101422.03;;;18.77;37.03
60089;BME280;45961;53.574;55.878;2022-08-19T05:06:42;101417.66;;;18.76;37.26
60089;BME280;45961;53.574;55.878;2022-08-19T05:07:44;101415.81;;;18.94;36.96
60089;BME280;45961;53.574;55.878;2022-08-19T05:08:45;101416.69;;;18.95;36.97
60089;BME280;45961;53.574;55.878;2022-08-19T05:09:46;101417.56;;;18.95;36.75
60089;BME280;45961;53.574;55.878;2022-08-19T05:10:49;101423.66;;;18.99;36.81
60089;BME280;45961;53.574;55.878;2022-08-19T05:11:51;101417.53;;;19.00;36.86
60089;BME280;45961;53.574;55.878;2022-08-19T05:12:53;101421.84;;;19.07;36.10
60089;BME280;45961;53.574;55.878;2022-08-19T05:13:55;101430.69;;;18.95;36.69
60089;BME280;45961;53.574;55.878;2022-08-19T05:14:57;101427.09;;;19.07;37.06
60089;BME280;45961;53.574;55.878;2022-08-19T05:15:59;101428.81;;;19.13;37.17
60089;BME280;45961;53.574;55.878;2022-08-19T05:17:00;101430.66;;;19.00;36.95
60089;BME280;45961;53.574;55.878;2022-08-19T05:18:01;101425.53;;;18.82;37.27
60089;BME280;45961;53.574;55.878;2022-08-19T05:19:21;101424.47;;;19.10;37.26
60089;BME280;45961;53.574;55.878;2022-08-19T05:20:40;101418.34;;;19.08;36.96
60089;BME280;45961;53.574;55.878;2022-08-19T05:22:00;101422.78;;;18.97;37.58
60089;BME280;45961;53.574;55.878;2022-08-19T05:23:19;101424.47;;;19.07;37.48
60089;BME280;45961;53.574;55.878;2022-08-19T05:24:22;101427.25;;;18.86;37.24
60089;BME280;45961;53.574;55.878;2022-08-19T05:25:23;101428.91;;;18.96;36.66
60089;BME280;45961;53.574;55.878;2022-08-19T05:26:25;101427.19;;;18.95;36.96